sensor_id;sensor_type;location;lat;lon;timestamp;temperature;humidity
20829;DHT22;10575;50.124;8.582;2022-09-01T00:01:35;18.30;98.80
20829;DHT22;10575;50.124;8.582;2022-09-01T00:04:02;18.30;98.70
20829;DHT22;10575;50.124;8.582;2022-09-01T00:06:30;18.30;98.90
20829;DHT22;10575;50.124;8.582;2022-09-01T00:09:03;18.30;99.00
20829;DHT22;10575;50.124;8.582;2022-09-01T00:11:29;18.30;99.10
20829;DHT22;10575;50.124;8.582;2022-09-01T00:13:55;18.20;99.10
20829;DHT22;10575;50.124;8.582;2022-09-01T00:16:22;18.20;99.40
20829;DHT22;10575;50.124;8.582;2022-09-01T00:18:51;18.10;99.60
20829;DHT22;10575;50.124;8.582;2022-09-01T00:21:30;18.10;99.70
20829;DHT22;10575;50.124;8.582;2022-09-01T00:23:55;18.10;99.90
20829;DHT22;10575;50.124;8.582;2022-09-01T00:26:21;18.00;99.90
20829;DHT22;10575;50.124;8.582;2022-09-01T00:28:47;18.00;99.90
20829;DHT22;10575;50.124;8.582;2022-09-01T00:31:13;18.00;99.90
20829;DHT22;10575;50.124;8.582;2022-09-01T00:33:43;18.00;99.90
20829;DHT22;10575;50.124;8.582;2022-09-01T00:36:08;18.00;99.90
20829;DHT22;10575;50.124;8.582;2022-09-01T00:38:35;18.00;99.90
20829;DHT22;10575;50.124;8.582;2022-09-01T00:41:00;18.00;99.90
20829;DHT22;10575;50.124;8.582;2022-09-01T00:43:45;18.00;99.90
20829;DHT22;10575;50.124;8.582;2022-09-01T00:46:18;17.90;99.90
20829;DHT22;10575;50.124;8.582;2022-09-01T00:48:46;17.90;99.90
20829;DHT22;10575;50.124;8.582;2022-09-01T00:51:13;17.90;99.90
20829;DHT22;10575;50.124;8.582;2022-09-01T00:53:40;17.90;99.90
20829;DHT22;10575;50.124;8.582;2022-09-01T00:56:08;17.80;99.90
20829;DHT22;10575;50.124;8.582;2022-09-01T00:58:35;17.80;99.90
20829;DHT22;10575;50.124;8.582;2022-09-01T01:01:02;17.80;99.90
20829;DHT22;10575;50.124;8.582;2022-09-01T01:03:28;17.70;99.90
20829;DHT22;10575;50.124;8.582;2022-09-01T01:05:56;17.70;99.90
20829;DHT22;10575;50.124;8.582;2022-09-01T01:08:31;17.70;99.90
20829;DHT22;10575;50.124;8.582;2022-09-01T01:11:03;17.70;99.90
20829;DHT22;10575;50.124;8.582;2022-09-01T01:13:29;17.60;99.90
20829;DHT22;10575;50.124;8.582;2022-09-01T01:15:57;17.60;99.90
20829;DHT22;10575;50.124;8.582;2022-09-01T01:18:24;17.60;99.90
20829;DHT22;10575;50.124;8.582;2022-09-01T01:21:04;17.50;99.90
20829;DHT22;10575;50.124;8.582;2022-09-01T01:24:04;17.40;99.90
20829;DHT22;10575;50.124;8.582;2022-09-01T01:26:31;17.40;99.90
20829;DHT22;10575;50.124;8.582;2022-09-01T01:28:57;17.40;99.90
20829;DHT22;10575;50.124;8.582;2022-09-01T01:31:23;17.40;99.90
20829;DHT22;10575;50.124;8.582;2022-09-01T01:33:55;17.40;99.90
20829;DHT22;10575;50.124;8.582;2022-09-01T01:36:30;17.40;99.90
20829;DHT22;10575;50.124;8.582;2022-09-01T01:38:59;17.30;99.90
20829;DHT22;10575;50.124;8.582;2022-09-01T01:41:29;17.30;99.90
20829;DHT22;10575;50.124;8.582;2022-09-01T01:43:58;17.30;99.90
20829;DHT22;10575;50.124;8.582;2022-09-01T01:46:24;17.30;99.90
20829;DHT22;10575;50.124;8.582;2022-09-01T01:48:51;17.30;99.90
20829;DHT22;10575;50.124;8.582;2022-09-01T01:51:18;17.30;99.90
20829;DHT22;10575;50.124;8.582;2022-09-01T01:53:46;17.20;99.90
20829;DHT22;10575;50.124;8.582;2022-09-01T01:56:12;17.20;99.90
20829;DHT22;10575;50.124;8.582;2022-09-01T01:58:38;17.20;99.90
20829;DHT22;10575;50.124;8.582;2022-09-01T02:01:05;17.20;99.90
20829;DHT22;10575;50.124;8.582;2022-09-01T02:03:35;17.20;99.90
20829;DHT22;10575;50.124;8.582;2022-09-01T02:06:00;17.10;99.90
20829;DHT22;10575;50.124;8.582;2022-09-01T02:08:29;17.10;99.90
20829;DHT22;10575;50.124;8.582;2022-09-01T02:10:54;17.10;99.90
20829;DHT22;10575;50.124;8.582;2022-09-01T02:13:23;17.00;99.90
20829;DHT22;10575;50.124;8.582;2022-09-01T02:15:58;17.00;99.90
20829;DHT22;10575;50.124;8.582;2022-09-01T02:18:32;17.00;99.90
20829;DHT22;10575;50.124;8.582;2022-09-01T02:21:04;17.00;99.90
20829;DHT22;10575;50.124;8.582;2022-09-01T02:23:34;17.00;99.90
20829;DHT22;10575;50.124;8.582;2022-09-01T02:26:02;17.00;99.90
20829;DHT22;10575;50.124;8.582;2022-09-01T02:28:32;17.00;99.90
20829;DHT22;10575;50.124;8.582;2022-09-01T02:30:59;17.00;99.90
20829;DHT22;10575;50.124;8.582;2022-09-01T02:33:27;17.00;99.90
20829;DHT22;10575;50.124;8.582;2022-09-01T02:36:00;17.10;99.90
20829;DHT22;10575;50.124;8.582;2022-09-01T02:38:27;17.10;99.90
20829;DHT22;10575;50.124;8.582;2022-09-01T02:40:55;17.10;99.90
20829;DHT22;10575;50.124;8.582;2022-09-01T02:43:23;17.10;99.90
20829;DHT22;10575;50.124;8.582;2022-09-01T02:45:51;17.10;99.90
20829;DHT22;10575;50.124;8.582;2022-09-01T02:48:19;17.20;99.90
20829;DHT22;10575;50.124;8.582;2022-09-01T02:50:48;17.10;99.90
20829;DHT22;10575;50.124;8.582;2022-09-01T02:53:13;17.10;99.90
20829;DHT22;10575;50.124;8.582;2022-09-01T02:55:40;17.10;99.90
20829;DHT22;10575;50.124;8.582;2022-09-01T02:58:06;17.10;99.90
20829;DHT22;10575;50.124;8.582;2022-09-01T03:00:35;17.20;99.90
20829;DHT22;10575;50.124;8.582;2022-09-01T03:03:05;17.10;99.90
20829;DHT22;10575;50.124;8.582;2022-09-01T03:05:32;17.10;99.90
20829;DHT22;10575;50.124;8.582;2022-09-01T03:08:07;17.10;99.90
20829;DHT22;10575;50.124;8.582;2022-09-01T03:10:39;17.00;99.90
20829;DHT22;10575;50.124;8.582;2022-09-01T03:13:08;16.90;99.90
20829;DHT22;10575;50.124;8.582;2022-09-01T03:15:35;17.00;99.90
20829;DHT22;10575;50.124;8.582;2022-09-01T03:18:03;16.80;99.90
20829;DHT22;10575;50.124;8.582;2022-09-01T03:20:31;16.80;99.90
20829;DHT22;10575;50.124;8.582;2022-09-01T03:23:01;16.80;99.90
20829;DHT22;10575;50.124;8.582;2022-09-01T03:25:27;16.70;99.90
20829;DHT22;10575;50.124;8.582;2022-09-01T03:27:54;16.70;99.90
20829;DHT22;10575;50.124;8.582;2022-09-01T03:30:27;16.60;99.90
20829;DHT22;10575;50.124;8.582;2022-09-01T03:32:55;16.60;99.90
20829;DHT22;10575;50.124;8.582;2022-09-01T03:35:21;16.70;99.90
20829;DHT22;10575;50.124;8.582;2022-09-01T03:37:47;16.70;99.90
20829;DHT22;10575;50.124;8.582;2022-09-01T03:40:13;16.70;99.90
20829;DHT22;10575;50.124;8.582;2022-09-01T03:42:40;16.80;99.90
20829;DHT22;10575;50.124;8.582;2022-09-01T03:45:08;16.80;99.90
20829;DHT22;10575;50.124;8.582;2022-09-01T03:47:38;16.70;99.90
20829;DHT22;10575;50.124;8.582;2022-09-01T03:50:07;16.70;99.90
20829;DHT22;10575;50.124;8.582;2022-09-01T03:52:54;16.80;99.90
20829;DHT22;10575;50.124;8.582;2022-09-01T03:55:26;16.70;99.90
20829;DHT22;10575;50.124;8.582;2022-09-01T03:57:56;16.60;99.90
20829;DHT22;10575;50.124;8.582;2022-09-01T04:00:24;16.60;99.90
20829;DHT22;10575;50.124;8.582;2022-09-01T04:02:56;16.60;99.90
20829;DHT22;10575;50.124;8.582;2022-09-01T04:05:24;16.50;99.90
20829;DHT22;10575;50.124;8.582;2022-09-01T04:07:55;16.50;99.90
20829;DHT22;10575;50.124;8.582;2022-09-01T04:10:22;16.50;99.90
20829;DHT22;10575;50.124;8.582;2022-09-01T04:12:48;16.40;99.90
20829;DHT22;10575;50.124;8.582;2022-09-01T04:15:15;16.40;99.90
20829;DHT22;10575;50.124;8.582;2022-09-01T04:17:45;16.30;99.90
20829;DHT22;10575;50.124;8.582;2022-09-01T04:20:37;16.30;99.90
20829;DHT22;10575;50.124;8.582;2022-09-01T04:25:48;16.50;99.90
20829;DHT22;10575;50.124;8.582;2022-09-01T04:28:19;16.40;99.90
20829;DHT22;10575;50.124;8.582;2022-09-01T04:30:55;16.30;99.90
20829;DHT22;10575;50.124;8.582;2022-09-01T04:33:23;16.20;99.90
20829;DHT22;10575;50.124;8.582;2022-09-01T04:35:49;16.20;99.90
20829;DHT22;10575;50.124;8.582;2022-09-01T04:38:23;16.20;99.90
20829;DHT22;10575;50.124;8.582;2022-09-01T04:40:50;16.20;99.90
20829;DHT22;10575;50.124;8.582;2022-09-01T04:43:16;16.20;99.90
20829;DHT22;10575;50.124;8.582;2022-09-01T04:45:44;16.20;99.90
20829;DHT22;10575;50.124;8.582;2022-09-01T04:48:09;16.10;99.90
20829;DHT22;10575;50.124;8.582;2022-09-01T04:50:35;16.10;99.90
20829;DHT22;10575;50.124;8.582;2022-09-01T04:53:04;16.20;99.90
20829;DHT22;10575;50.124;8.582;2022-09-01T04:55:31;16.10;99.90
20829;DHT22;10575;50.124;8.582;2022-09-01T04:57:58;16.10;99.90
20829;DHT22;10575;50.124;8.582;2022-09-01T05:00:26;16.10;99.90
20829;DHT22;10575;50.124;8.582;2022-09-01T05:02:58;16.10;99.90
20829;DHT22;10575;50.124;8.582;2022-09-01T05:05:35;16.10;99.90
20829;DHT22;10575;50.124;8.582;2022-09-01T05:08:06;16.10;99.90
20829;DHT22;10575;50.124;8.582;2022-09-01T05:10:38;16.40;99.90
20829;DHT22;10575;50.124;8.582;2022-09-01T05:13:08;16.40;99.90
20829;DHT22;10575;50.124;8.582;2022-09-01T05:15:35;16.40;99.90
20829;DHT22;10575;50.124;8.582;2022-09-01T05:18:01;16.30;99.90
20829;DHT22;10575;50.124;8.582;2022-09-01T05:20:36;16.30;99.90
20829;DHT22;10575;50.124;8.582;2022-09-01T05:23:02;16.50;99.90
20829;DHT22;10575;50.124;8.582;2022-09-01T05:25:29;16.60;99.90
20829;DHT22;10575;50.124;8.582;2022-09-01T05:27:55;16.60;99.90
20829;DHT22;10575;50.124;8.582;2022-09-01T05:30:21;16.50;99.90
20829;DHT22;10575;50.124;8.582;2022-09-01T05:32:47;16.50;99.90
20829;DHT22;10575;50.124;8.582;2022-09-01T05:35:13;16.70;99.90
20829;DHT22;10575;50.124;8.582;2022-09-01T05:37:39;16.80;99.90
20829;DHT22;10575;50.124;8.582;2022-09-01T05:40:08;17.10;99.90
20829;DHT22;10575;50.124;8.582;2022-09-01T05:42:41;17.20;99.90
20829;DHT22;10575;50.124;8.582;2022-09-01T05:45:07;17.30;99.90
20829;DHT22;10575;50.124;8.582;2022-09-01T05:47:37;17.40;99.90
20829;DHT22;10575;50.124;8.582;2022-09-01T05:50:03;17.40;99.90
20829;DHT22;10575;50.124;8.582;2022-09-01T05:52:32;17.30;99.90
20829;DHT22;10575;50.124;8.582;2022-09-01T05:54:58;17.50;99.90
20829;DHT22;10575;50.124;8.582;2022-09-01T05:57:25;17.50;99.90
20829;DHT22;10575;50.124;8.582;2022-09-01T05:59:50;17.40;99.90
20829;DHT22;10575;50.124;8.582;2022-09-01T06:02:19;17.50;99.90
20829;DHT22;10575;50.124;8.582;2022-09-01T06:04:46;17.70;99.90
20829;DHT22;10575;50.124;8.582;2022-09-01T06:07:13;17.50;99.90
20829;DHT22;10575;50.124;8.582;2022-09-01T06:09:41;17.40;99.90
20829;DHT22;10575;50.124;8.582;2022-09-01T06:12:08;17.60;99.90
20829;DHT22;10575;50.124;8.582;2022-09-01T06:14:44;17.80;99.90
20829;DHT22;10575;50.124;8.582;2022-09-01T06:17:10;17.80;99.90
20829;DHT22;10575;50.124;8.582;2022-09-01T06:19:37;17.70;99.90
20829;DHT22;10575;50.124;8.582;2022-09-01T06:22:04;17.80;99.90
20829;DHT22;10575;50.124;8.582;2022-09-01T06:24:30;17.90;99.90
20829;DHT22;10575;50.124;8.582;2022-09-01T06:26:56;17.80;99.90
20829;DHT22;10575;50.124;8.582;2022-09-01T06:29:21;18.00;99.90
20829;DHT22;10575;50.124;8.582;2022-09-01T06:31:47;18.10;99.90
20829;DHT22;10575;50.124;8.582;2022-09-01T06:34:17;18.20;99.90
20829;DHT22;10575;50.124;8.582;2022-09-01T06:36:45;18.40;99.90
20829;DHT22;10575;50.124;8.582;2022-09-01T06:39:12;18.40;99.90
20829;DHT22;10575;50.124;8.582;2022-09-01T06:41:48;18.40;99.90
20829;DHT22;10575;50.124;8.582;2022-09-01T06:44:14;18.50;99.90
20829;DHT22;10575;50.124;8.582;2022-09-01T06:46:40;18.50;99.90
20829;DHT22;10575;50.124;8.582;2022-09-01T06:49:05;18.60;99.90
20829;DHT22;10575;50.124;8.582;2022-09-01T06:51:36;19.00;99.90
20829;DHT22;10575;50.124;8.582;2022-09-01T06:54:01;19.20;99.90
20829;DHT22;10575;50.124;8.582;2022-09-01T06:56:29;19.60;99.90
20829;DHT22;10575;50.124;8.582;2022-09-01T06:58:56;19.80;99.90
20829;DHT22;10575;50.124;8.582;2022-09-01T07:01:23;19.90;99.90
20829;DHT22;10575;50.124;8.582;2022-09-01T07:03:54;20.00;99.90
20829;DHT22;10575;50.124;8.582;2022-09-01T07:06:21;20.00;99.90
20829;DHT22;10575;50.124;8.582;2022-09-01T07:08:52;20.10;99.90
20829;DHT22;10575;50.124;8.582;2022-09-01T07:11:23;20.50;99.90
20829;DHT22;10575;50.124;8.582;2022-09-01T07:13:50;20.70;99.00
20829;DHT22;10575;50.124;8.582;2022-09-01T07:16:21;20.90;98.50
20829;DHT22;10575;50.124;8.582;2022-09-01T07:18:49;21.50;96.80
20829;DHT22;10575;50.124;8.582;2022-09-01T07:21:17;22.00;95.50
20829;DHT22;10575;50.124;8.582;2022-09-01T07:23:43;22.60;94.20
20829;DHT22;10575;50.124;8.582;2022-09-01T07:26:09;22.70;93.00
20829;DHT22;10575;50.124;8.582;2022-09-01T07:28:35;22.60;92.70
20829;DHT22;10575;50.124;8.582;2022-09-01T07:31:01;22.60;92.20
20829;DHT22;10575;50.124;8.582;2022-09-01T07:33:28;22.70;91.90
20829;DHT22;10575;50.124;8.582;2022-09-01T07:35:56;23.00;90.90
20829;DHT22;10575;50.124;8.582;2022-09-01T07:38:23;23.10;90.80
20829;DHT22;10575;50.124;8.582;2022-09-01T07:40:50;23.30;90.70
20829;DHT22;10575;50.124;8.582;2022-09-01T07:45:54;23.40;89.50
20829;DHT22;10575;50.124;8.582;2022-09-01T07:48:26;24.00;86.30
20829;DHT22;10575;50.124;8.582;2022-09-01T07:50:54;24.80;82.70
20829;DHT22;10575;50.124;8.582;2022-09-01T07:53:26;25.20;81.60
20829;DHT22;10575;50.124;8.582;2022-09-01T07:55:54;26.00;77.80
20829;DHT22;10575;50.124;8.582;2022-09-01T07:58:23;25.90;77.00
20829;DHT22;10575;50.124;8.582;2022-09-01T08:00:49;26.40;75.40
20829;DHT22;10575;50.124;8.582;2022-09-01T08:03:17;27.60;67.80
20829;DHT22;10575;50.124;8.582;2022-09-01T08:05:43;28.60;64.50
20829;DHT22;10575;50.124;8.582;2022-09-01T08:08:09;27.70;62.80
20829;DHT22;10575;50.124;8.582;2022-09-01T08:10:39;27.20;64.20
20829;DHT22;10575;50.124;8.582;2022-09-01T08:13:08;26.80;65.20
20829;DHT22;10575;50.124;8.582;2022-09-01T08:15:34;26.90;65.70
20829;DHT22;10575;50.124;8.582;2022-09-01T08:18:01;27.50;65.70
20829;DHT22;10575;50.124;8.582;2022-09-01T08:20:27;28.50;61.20
20829;DHT22;10575;50.124;8.582;2022-09-01T08:22:54;29.50;58.40
20829;DHT22;10575;50.124;8.582;2022-09-01T08:25:20;30.00;57.80
20829;DHT22;10575;50.124;8.582;2022-09-01T08:27:45;30.90;53.80
20829;DHT22;10575;50.124;8.582;2022-09-01T08:30:12;30.20;53.90
20829;DHT22;10575;50.124;8.582;2022-09-01T08:32:38;28.90;56.20
20829;DHT22;10575;50.124;8.582;2022-09-01T08:35:07;27.70;58.50
20829;DHT22;10575;50.124;8.582;2022-09-01T08:37:33;27.30;60.50
20829;DHT22;10575;50.124;8.582;2022-09-01T08:39:58;28.80;57.00
20829;DHT22;10575;50.124;8.582;2022-09-01T08:47:45;29.60;55.10
20829;DHT22;10575;50.124;8.582;2022-09-01T08:50:11;30.90;53.50
20829;DHT22;10575;50.124;8.582;2022-09-01T08:52:41;32.30;51.10
20829;DHT22;10575;50.124;8.582;2022-09-01T08:55:23;32.10;48.80
20829;DHT22;10575;50.124;8.582;2022-09-01T08:57:54;31.20;50.70
20829;DHT22;10575;50.124;8.582;2022-09-01T09:00:24;32.40;50.30
20829;DHT22;10575;50.124;8.582;2022-09-01T09:08:53;32.30;46.90
20829;DHT22;10575;50.124;8.582;2022-09-01T09:14:04;31.20;49.00
20829;DHT22;10575;50.124;8.582;2022-09-01T09:16:41;30.20;50.30
20829;DHT22;10575;50.124;8.582;2022-09-01T09:21:56;29.30;52.20
20829;DHT22;10575;50.124;8.582;2022-09-01T09:27:26;31.10;49.50
20829;DHT22;10575;50.124;8.582;2022-09-01T09:32:20;31.70;48.10
20829;DHT22;10575;50.124;8.582;2022-09-01T09:34:47;30.50;49.90
20829;DHT22;10575;50.124;8.582;2022-09-01T09:37:28;29.30;52.60
20829;DHT22;10575;50.124;8.582;2022-09-01T09:42:36;28.40;54.10
20829;DHT22;10575;50.124;8.582;2022-09-01T09:45:27;27.50;55.40
20829;DHT22;10575;50.124;8.582;2022-09-01T09:47:52;27.30;55.90
20829;DHT22;10575;50.124;8.582;2022-09-01T09:52:50;26.20;59.50
20829;DHT22;10575;50.124;8.582;2022-09-01T09:55:25;26.00;61.50
20829;DHT22;10575;50.124;8.582;2022-09-01T09:57:58;26.30;60.70
20829;DHT22;10575;50.124;8.582;2022-09-01T10:00:29;26.10;61.20
20829;DHT22;10575;50.124;8.582;2022-09-01T10:03:02;25.80;62.90
20829;DHT22;10575;50.124;8.582;2022-09-01T10:05:38;25.70;62.40
20829;DHT22;10575;50.124;8.582;2022-09-01T10:08:08;25.50;63.50
20829;DHT22;10575;50.124;8.582;2022-09-01T10:10:43;25.20;63.70
20829;DHT22;10575;50.124;8.582;2022-09-01T10:13:14;25.00;62.70
20829;DHT22;10575;50.124;8.582;2022-09-01T10:15:42;25.00;63.70
20829;DHT22;10575;50.124;8.582;2022-09-01T10:18:16;25.10;64.60
20829;DHT22;10575;50.124;8.582;2022-09-01T10:21:07;25.10;65.20
20829;DHT22;10575;50.124;8.582;2022-09-01T10:23:34;25.30;65.30
20829;DHT22;10575;50.124;8.582;2022-09-01T10:26:08;25.20;63.70
20829;DHT22;10575;50.124;8.582;2022-09-01T10:28:43;24.80;64.20
20829;DHT22;10575;50.124;8.582;2022-09-01T10:31:10;24.60;66.00
20829;DHT22;10575;50.124;8.582;2022-09-01T10:33:35;24.60;69.30
20829;DHT22;10575;50.124;8.582;2022-09-01T10:36:01;24.40;66.80
20829;DHT22;10575;50.124;8.582;2022-09-01T10:38:28;24.60;68.70
20829;DHT22;10575;50.124;8.582;2022-09-01T10:40:56;24.80;66.70
20829;DHT22;10575;50.124;8.582;2022-09-01T10:43:48;24.90;65.60
20829;DHT22;10575;50.124;8.582;2022-09-01T10:49:57;25.30;62.30
20829;DHT22;10575;50.124;8.582;2022-09-01T10:52:06;25.50;62.10
20829;DHT22;10575;50.124;8.582;2022-09-01T10:57:35;25.30;60.50
20829;DHT22;10575;50.124;8.582;2022-09-01T11:11:15;26.00;58.20
20829;DHT22;10575;50.124;8.582;2022-09-01T11:13:45;26.00;58.20
20829;DHT22;10575;50.124;8.582;2022-09-01T11:19:38;26.00;59.80
20829;DHT22;10575;50.124;8.582;2022-09-01T11:22:17;25.90;59.70
20829;DHT22;10575;50.124;8.582;2022-09-01T11:25:04;25.80;61.30
20829;DHT22;10575;50.124;8.582;2022-09-01T11:27:54;25.70;61.40
20829;DHT22;10575;50.124;8.582;2022-09-01T11:30:42;25.60;61.10
20829;DHT22;10575;50.124;8.582;2022-09-01T11:38:51;25.30;60.90
20829;DHT22;10575;50.124;8.582;2022-09-01T11:41:49;25.20;61.70
20829;DHT22;10575;50.124;8.582;2022-09-01T11:47:19;25.10;62.70
20829;DHT22;10575;50.124;8.582;2022-09-01T11:50:00;25.30;60.70
20829;DHT22;10575;50.124;8.582;2022-09-01T11:52:29;25.40;59.60
20829;DHT22;10575;50.124;8.582;2022-09-01T11:54:57;25.50;59.70
20829;DHT22;10575;50.124;8.582;2022-09-01T11:57:32;25.50;59.60
20829;DHT22;10575;50.124;8.582;2022-09-01T12:00:00;25.70;58.90
20829;DHT22;10575;50.124;8.582;2022-09-01T12:02:43;25.80;58.40
20829;DHT22;10575;50.124;8.582;2022-09-01T12:05:29;25.90;58.50
20829;DHT22;10575;50.124;8.582;2022-09-01T12:07:55;25.90;57.50
20829;DHT22;10575;50.124;8.582;2022-09-01T12:10:36;25.60;57.70
20829;DHT22;10575;50.124;8.582;2022-09-01T12:13:17;25.50;57.60
20829;DHT22;10575;50.124;8.582;2022-09-01T12:15:55;25.40;59.00
20829;DHT22;10575;50.124;8.582;2022-09-01T12:18:24;25.50;58.10
20829;DHT22;10575;50.124;8.582;2022-09-01T12:20:53;25.60;58.00
20829;DHT22;10575;50.124;8.582;2022-09-01T12:23:32;25.70;57.30
20829;DHT22;10575;50.124;8.582;2022-09-01T12:26:25;25.80;57.70
20829;DHT22;10575;50.124;8.582;2022-09-01T12:28:51;26.00;56.80
20829;DHT22;10575;50.124;8.582;2022-09-01T12:31:25;26.10;56.90
20829;DHT22;10575;50.124;8.582;2022-09-01T12:33:52;26.30;57.50
20829;DHT22;10575;50.124;8.582;2022-09-01T12:38:58;26.10;56.30
20829;DHT22;10575;50.124;8.582;2022-09-01T12:41:42;26.20;55.80
20829;DHT22;10575;50.124;8.582;2022-09-01T12:44:33;26.00;56.70
20829;DHT22;10575;50.124;8.582;2022-09-01T12:47:10;26.00;57.50
20829;DHT22;10575;50.124;8.582;2022-09-01T12:49:45;26.10;57.90
20829;DHT22;10575;50.124;8.582;2022-09-01T12:52:21;26.30;56.30
20829;DHT22;10575;50.124;8.582;2022-09-01T12:54:52;26.70;56.70
20829;DHT22;10575;50.124;8.582;2022-09-01T12:57:30;27.00;55.70
20829;DHT22;10575;50.124;8.582;2022-09-01T13:05:37;27.20;53.60
20829;DHT22;10575;50.124;8.582;2022-09-01T13:08:13;27.20;54.20
20829;DHT22;10575;50.124;8.582;2022-09-01T13:10:51;27.10;54.50
20829;DHT22;10575;50.124;8.582;2022-09-01T13:13:18;26.90;54.30
20829;DHT22;10575;50.124;8.582;2022-09-01T13:15:47;26.80;55.70
20829;DHT22;10575;50.124;8.582;2022-09-01T13:18:15;26.80;54.10
20829;DHT22;10575;50.124;8.582;2022-09-01T13:20:40;26.60;54.80
20829;DHT22;10575;50.124;8.582;2022-09-01T13:23:07;26.40;54.60
20829;DHT22;10575;50.124;8.582;2022-09-01T13:25:33;26.30;54.60
20829;DHT22;10575;50.124;8.582;2022-09-01T13:28:00;26.30;54.90
20829;DHT22;10575;50.124;8.582;2022-09-01T13:30:27;26.30;55.20
20829;DHT22;10575;50.124;8.582;2022-09-01T13:32:55;26.20;55.20
20829;DHT22;10575;50.124;8.582;2022-09-01T13:35:21;26.10;55.00
20829;DHT22;10575;50.124;8.582;2022-09-01T13:37:48;25.90;55.50
20829;DHT22;10575;50.124;8.582;2022-09-01T13:40:16;25.80;56.00
20829;DHT22;10575;50.124;8.582;2022-09-01T13:42:46;26.00;55.90
20829;DHT22;10575;50.124;8.582;2022-09-01T13:45:13;26.10;54.20
20829;DHT22;10575;50.124;8.582;2022-09-01T13:47:39;26.30;54.40
20829;DHT22;10575;50.124;8.582;2022-09-01T13:50:06;26.40;54.00
20829;DHT22;10575;50.124;8.582;2022-09-01T13:52:32;26.60;53.60
20829;DHT22;10575;50.124;8.582;2022-09-01T13:54:58;26.60;53.50
20829;DHT22;10575;50.124;8.582;2022-09-01T13:57:23;26.50;53.20
20829;DHT22;10575;50.124;8.582;2022-09-01T13:59:49;26.30;55.30
20829;DHT22;10575;50.124;8.582;2022-09-01T14:02:15;26.10;54.00
20829;DHT22;10575;50.124;8.582;2022-09-01T14:04:40;25.90;54.20
20829;DHT22;10575;50.124;8.582;2022-09-01T14:07:06;25.80;54.10
20829;DHT22;10575;50.124;8.582;2022-09-01T14:09:32;25.90;54.20
20829;DHT22;10575;50.124;8.582;2022-09-01T14:11:58;26.00;53.10
20829;DHT22;10575;50.124;8.582;2022-09-01T14:14:24;26.00;52.60
20829;DHT22;10575;50.124;8.582;2022-09-01T14:16:49;26.00;52.30
20829;DHT22;10575;50.124;8.582;2022-09-01T14:19:15;25.80;52.60
20829;DHT22;10575;50.124;8.582;2022-09-01T14:21:41;25.80;52.40
20829;DHT22;10575;50.124;8.582;2022-09-01T14:24:06;25.70;53.00
20829;DHT22;10575;50.124;8.582;2022-09-01T14:26:33;25.80;51.80
20829;DHT22;10575;50.124;8.582;2022-09-01T14:28:58;26.00;51.50
20829;DHT22;10575;50.124;8.582;2022-09-01T14:31:26;26.30;50.90
20829;DHT22;10575;50.124;8.582;2022-09-01T14:33:51;26.60;51.30
20829;DHT22;10575;50.124;8.582;2022-09-01T14:36:20;26.60;50.80
20829;DHT22;10575;50.124;8.582;2022-09-01T14:38:46;26.50;51.20
20829;DHT22;10575;50.124;8.582;2022-09-01T14:41:14;26.70;52.20
20829;DHT22;10575;50.124;8.582;2022-09-01T14:43:40;26.80;50.60
20829;DHT22;10575;50.124;8.582;2022-09-01T14:46:08;26.60;50.40
20829;DHT22;10575;50.124;8.582;2022-09-01T14:48:36;26.50;51.10
20829;DHT22;10575;50.124;8.582;2022-09-01T14:51:02;26.50;50.80
20829;DHT22;10575;50.124;8.582;2022-09-01T14:53:29;26.80;50.20
20829;DHT22;10575;50.124;8.582;2022-09-01T14:55:56;26.80;50.70
20829;DHT22;10575;50.124;8.582;2022-09-01T14:58:23;26.80;50.40
20829;DHT22;10575;50.124;8.582;2022-09-01T15:00:49;26.70;49.70
20829;DHT22;10575;50.124;8.582;2022-09-01T15:03:15;26.70;49.80
20829;DHT22;10575;50.124;8.582;2022-09-01T15:05:40;26.60;50.50
20829;DHT22;10575;50.124;8.582;2022-09-01T15:08:07;26.40;51.20
20829;DHT22;10575;50.124;8.582;2022-09-01T15:10:33;26.30;50.10
20829;DHT22;10575;50.124;8.582;2022-09-01T15:13:00;26.30;51.00
20829;DHT22;10575;50.124;8.582;2022-09-01T15:15:27;26.10;51.00
20829;DHT22;10575;50.124;8.582;2022-09-01T15:17:54;25.90;51.30
20829;DHT22;10575;50.124;8.582;2022-09-01T15:20:20;26.00;50.70
20829;DHT22;10575;50.124;8.582;2022-09-01T15:23:04;26.00;50.70
20829;DHT22;10575;50.124;8.582;2022-09-01T15:25:30;26.00;51.60
20829;DHT22;10575;50.124;8.582;2022-09-01T15:27:56;25.90;51.20
20829;DHT22;10575;50.124;8.582;2022-09-01T15:30:21;25.90;50.70
20829;DHT22;10575;50.124;8.582;2022-09-01T15:32:50;25.90;51.20
20829;DHT22;10575;50.124;8.582;2022-09-01T15:35:17;25.80;51.30
20829;DHT22;10575;50.124;8.582;2022-09-01T15:37:46;25.70;51.30
20829;DHT22;10575;50.124;8.582;2022-09-01T15:40:12;25.70;50.90
20829;DHT22;10575;50.124;8.582;2022-09-01T15:42:38;25.80;50.30
20829;DHT22;10575;50.124;8.582;2022-09-01T15:45:10;25.90;49.80
20829;DHT22;10575;50.124;8.582;2022-09-01T15:47:36;26.00;49.70
20829;DHT22;10575;50.124;8.582;2022-09-01T15:50:08;25.90;50.70
20829;DHT22;10575;50.124;8.582;2022-09-01T15:52:48;25.80;50.70
20829;DHT22;10575;50.124;8.582;2022-09-01T15:55:15;25.80;51.00
20829;DHT22;10575;50.124;8.582;2022-09-01T15:57:41;25.60;50.60
20829;DHT22;10575;50.124;8.582;2022-09-01T16:00:07;25.60;50.60
20829;DHT22;10575;50.124;8.582;2022-09-01T16:02:32;25.60;50.60
20829;DHT22;10575;50.124;8.582;2022-09-01T16:04:58;25.70;50.60
20829;DHT22;10575;50.124;8.582;2022-09-01T16:07:23;25.80;50.30
20829;DHT22;10575;50.124;8.582;2022-09-01T16:09:49;25.90;50.30
20829;DHT22;10575;50.124;8.582;2022-09-01T16:12:21;26.00;49.60
20829;DHT22;10575;50.124;8.582;2022-09-01T16:14:46;25.90;50.10
20829;DHT22;10575;50.124;8.582;2022-09-01T16:17:19;25.90;50.10
20829;DHT22;10575;50.124;8.582;2022-09-01T16:22:51;26.10;49.70
20829;DHT22;10575;50.124;8.582;2022-09-01T16:25:25;26.00;49.70
20829;DHT22;10575;50.124;8.582;2022-09-01T16:27:52;26.00;49.50
20829;DHT22;10575;50.124;8.582;2022-09-01T16:30:23;26.00;50.00
20829;DHT22;10575;50.124;8.582;2022-09-01T16:32:49;26.10;49.60
20829;DHT22;10575;50.124;8.582;2022-09-01T16:35:15;26.10;49.10
20829;DHT22;10575;50.124;8.582;2022-09-01T16:43:05;26.30;49.70
20829;DHT22;10575;50.124;8.582;2022-09-01T16:46:07;26.30;49.60
20829;DHT22;10575;50.124;8.582;2022-09-01T16:52:08;26.30;48.50
20829;DHT22;10575;50.124;8.582;2022-09-01T17:00:19;26.10;49.00
20829;DHT22;10575;50.124;8.582;2022-09-01T17:02:52;26.00;49.20
20829;DHT22;10575;50.124;8.582;2022-09-01T17:10:40;25.80;50.00
20829;DHT22;10575;50.124;8.582;2022-09-01T17:13:35;25.80;49.80
20829;DHT22;10575;50.124;8.582;2022-09-01T17:16:21;25.80;50.00
20829;DHT22;10575;50.124;8.582;2022-09-01T17:19:00;25.80;50.40